sensor_id;sensor_type;location;lat;lon;timestamp;temperature;humidity
20973;DHT22;10645;52.370;13.314;2023-02-28T00:00:32;-0.20;99.90
20973;DHT22;10645;52.370;13.314;2023-02-28T00:02:58;-0.20;99.90
20973;DHT22;10645;52.370;13.314;2023-02-28T00:05:26;-0.20;99.90
20973;DHT22;10645;52.370;13.314;2023-02-28T00:07:52;-0.10;99.90
20973;DHT22;10645;52.370;13.314;2023-02-28T00:10:24;-0.10;99.90
20973;DHT22;10645;52.370;13.314;2023-02-28T00:12:51;-0.10;99.90
20973;DHT22;10645;52.370;13.314;2023-02-28T00:15:19;-0.10;99.90
20973;DHT22;10645;52.370;13.314;2023-02-28T00:17:45;-0.10;99.90
20973;DHT22;10645;52.370;13.314;2023-02-28T00:20:12;-0.10;99.90
20973;DHT22;10645;52.370;13.314;2023-02-28T00:22:44;0.00;99.90
20973;DHT22;10645;52.370;13.314;2023-02-28T00:25:13;0.00;99.90
20973;DHT22;10645;52.370;13.314;2023-02-28T00:27:40;-0.10;99.90
20973;DHT22;10645;52.370;13.314;2023-02-28T00:30:09;0.00;99.90
20973;DHT22;10645;52.370;13.314;2023-02-28T00:32:37;0.00;99.90
20973;DHT22;10645;52.370;13.314;2023-02-28T00:35:04;0.00;99.90
20973;DHT22;10645;52.370;13.314;2023-02-28T00:37:30;0.00;99.90
20973;DHT22;10645;52.370;13.314;2023-02-28T00:39:56;-0.10;99.90
20973;DHT22;10645;52.370;13.314;2023-02-28T00:42:23;-0.10;99.90
20973;DHT22;10645;52.370;13.314;2023-02-28T00:44:49;-0.10;99.90
20973;DHT22;10645;52.370;13.314;2023-02-28T00:47:15;-0.10;99.90
20973;DHT22;10645;52.370;13.314;2023-02-28T00:49:42;-0.10;99.90
20973;DHT22;10645;52.370;13.314;2023-02-28T00:52:09;0.00;99.90
20973;DHT22;10645;52.370;13.314;2023-02-28T00:54:35;0.00;99.90
20973;DHT22;10645;52.370;13.314;2023-02-28T00:57:02;0.00;99.90
20973;DHT22;10645;52.370;13.314;2023-02-28T00:59:28;0.00;99.90
20973;DHT22;10645;52.370;13.314;2023-02-28T01:01:54;0.00;99.90
20973;DHT22;10645;52.370;13.314;2023-02-28T01:04:21;0.00;99.90
20973;DHT22;10645;52.370;13.314;2023-02-28T01:06:47;0.00;99.90
20973;DHT22;10645;52.370;13.314;2023-02-28T01:09:15;0.00;99.90
20973;DHT22;10645;52.370;13.314;2023-02-28T01:11:41;0.00;99.90
20973;DHT22;10645;52.370;13.314;2023-02-28T01:14:14;0.00;99.90
20973;DHT22;10645;52.370;13.314;2023-02-28T01:16:40;0.10;99.90
20973;DHT22;10645;52.370;13.314;2023-02-28T01:19:07;0.10;99.90
20973;DHT22;10645;52.370;13.314;2023-02-28T01:21:33;0.10;99.90
20973;DHT22;10645;52.370;13.314;2023-02-28T01:24:00;0.10;99.90
20973;DHT22;10645;52.370;13.314;2023-02-28T01:26:27;0.00;99.90
20973;DHT22;10645;52.370;13.314;2023-02-28T01:28:53;0.00;99.90
20973;DHT22;10645;52.370;13.314;2023-02-28T01:31:20;-0.10;99.90
20973;DHT22;10645;52.370;13.314;2023-02-28T01:33:47;-0.10;99.90
20973;DHT22;10645;52.370;13.314;2023-02-28T01:36:19;-0.10;99.90
20973;DHT22;10645;52.370;13.314;2023-02-28T01:38:45;-0.10;99.90
20973;DHT22;10645;52.370;13.314;2023-02-28T01:41:25;0.00;99.90
20973;DHT22;10645;52.370;13.314;2023-02-28T01:43:58;0.00;99.90
20973;DHT22;10645;52.370;13.314;2023-02-28T01:46:25;-0.10;99.90
20973;DHT22;10645;52.370;13.314;2023-02-28T01:48:58;-0.10;99.90
20973;DHT22;10645;52.370;13.314;2023-02-28T01:51:34;-0.20;99.90
20973;DHT22;10645;52.370;13.314;2023-02-28T01:54:12;-0.20;99.90
20973;DHT22;10645;52.370;13.314;2023-02-28T01:56:45;-0.30;99.90
20973;DHT22;10645;52.370;13.314;2023-02-28T01:59:14;-0.30;99.90
20973;DHT22;10645;52.370;13.314;2023-02-28T02:01:43;-0.30;99.90
20973;DHT22;10645;52.370;13.314;2023-02-28T02:04:09;-0.30;99.90
20973;DHT22;10645;52.370;13.314;2023-02-28T02:06:40;-0.30;99.90
20973;DHT22;10645;52.370;13.314;2023-02-28T02:09:10;-0.40;99.90
20973;DHT22;10645;52.370;13.314;2023-02-28T02:11:39;-0.40;99.90
20973;DHT22;10645;52.370;13.314;2023-02-28T02:14:29;-0.40;99.90
20973;DHT22;10645;52.370;13.314;2023-02-28T02:17:23;-0.50;99.90
20973;DHT22;10645;52.370;13.314;2023-02-28T02:20:16;-0.50;99.90
20973;DHT22;10645;52.370;13.314;2023-02-28T02:25:54;-0.60;99.90
20973;DHT22;10645;52.370;13.314;2023-02-28T02:48:26;-0.80;99.90
20973;DHT22;10645;52.370;13.314;2023-02-28T02:50:55;-0.90;99.90
20973;DHT22;10645;52.370;13.314;2023-02-28T02:53:28;-1.00;99.90
20973;DHT22;10645;52.370;13.314;2023-02-28T02:55:56;-1.10;99.90
20973;DHT22;10645;52.370;13.314;2023-02-28T02:58:29;-1.30;99.90
20973;DHT22;10645;52.370;13.314;2023-02-28T03:00:59;-1.40;99.90
20973;DHT22;10645;52.370;13.314;2023-02-28T03:03:29;-1.60;99.90
20973;DHT22;10645;52.370;13.314;2023-02-28T03:05:58;-1.70;99.90
20973;DHT22;10645;52.370;13.314;2023-02-28T03:08:26;-1.80;99.90
20973;DHT22;10645;52.370;13.314;2023-02-28T03:10:57;-1.90;99.90
20973;DHT22;10645;52.370;13.314;2023-02-28T03:13:42;-2.00;99.90
20973;DHT22;10645;52.370;13.314;2023-02-28T03:25:29;-2.40;99.90
20973;DHT22;10645;52.370;13.314;2023-02-28T03:27:41;-2.50;99.90
20973;DHT22;10645;52.370;13.314;2023-02-28T03:33:17;-2.60;99.90
20973;DHT22;10645;52.370;13.314;2023-02-28T03:35:55;-2.60;99.90
20973;DHT22;10645;52.370;13.314;2023-02-28T03:41:23;-2.70;99.90
20973;DHT22;10645;52.370;13.314;2023-02-28T03:43:56;-2.70;99.90
20973;DHT22;10645;52.370;13.314;2023-02-28T03:46:27;-2.80;99.90
20973;DHT22;10645;52.370;13.314;2023-02-28T03:49:06;-2.90;99.90
20973;DHT22;10645;52.370;13.314;2023-02-28T03:51:35;-2.90;99.90
20973;DHT22;10645;52.370;13.314;2023-02-28T03:54:22;-3.00;99.90
20973;DHT22;10645;52.370;13.314;2023-02-28T03:57:05;-3.00;99.90
20973;DHT22;10645;52.370;13.314;2023-02-28T03:59:40;-3.00;99.90
20973;DHT22;10645;52.370;13.314;2023-02-28T04:02:08;-3.10;99.90
20973;DHT22;10645;52.370;13.314;2023-02-28T04:04:34;-3.10;99.90
20973;DHT22;10645;52.370;13.314;2023-02-28T04:07:03;-3.20;99.90
20973;DHT22;10645;52.370;13.314;2023-02-28T04:09:29;-3.20;99.90
20973;DHT22;10645;52.370;13.314;2023-02-28T04:11:55;-3.30;99.90
20973;DHT22;10645;52.370;13.314;2023-02-28T04:14:22;-3.30;99.90
20973;DHT22;10645;52.370;13.314;2023-02-28T04:16:48;-3.40;99.90
20973;DHT22;10645;52.370;13.314;2023-02-28T04:19:15;-3.40;99.90
20973;DHT22;10645;52.370;13.314;2023-02-28T04:21:46;-3.40;99.90
20973;DHT22;10645;52.370;13.314;2023-02-28T04:24:16;-3.50;99.90
20973;DHT22;10645;52.370;13.314;2023-02-28T04:26:44;-3.50;99.90
20973;DHT22;10645;52.370;13.314;2023-02-28T04:29:13;-3.60;99.90
20973;DHT22;10645;52.370;13.314;2023-02-28T04:31:39;-3.60;99.90
20973;DHT22;10645;52.370;13.314;2023-02-28T04:34:06;-3.70;99.90
20973;DHT22;10645;52.370;13.314;2023-02-28T04:36:32;-3.80;99.90
20973;DHT22;10645;52.370;13.314;2023-02-28T04:38:58;-3.80;99.90
20973;DHT22;10645;52.370;13.314;2023-02-28T04:41:24;-3.90;99.90
20973;DHT22;10645;52.370;13.314;2023-02-28T04:43:52;-3.90;99.90
20973;DHT22;10645;52.370;13.314;2023-02-28T04:46:19;-4.00;99.90
20973;DHT22;10645;52.370;13.314;2023-02-28T04:48:45;-4.00;99.90
20973;DHT22;10645;52.370;13.314;2023-02-28T04:51:14;-4.00;99.90
20973;DHT22;10645;52.370;13.314;2023-02-28T04:53:44;-4.00;99.90
20973;DHT22;10645;52.370;13.314;2023-02-28T04:56:15;-3.90;99.90
20973;DHT22;10645;52.370;13.314;2023-02-28T04:58:42;-3.90;99.90
20973;DHT22;10645;52.370;13.314;2023-02-28T05:01:25;-3.90;99.90
20973;DHT22;10645;52.370;13.314;2023-02-28T05:03:53;-4.00;99.90
20973;DHT22;10645;52.370;13.314;2023-02-28T05:06:20;-4.00;99.90
20973;DHT22;10645;52.370;13.314;2023-02-28T05:08:47;-4.00;99.90
20973;DHT22;10645;52.370;13.314;2023-02-28T05:11:19;-4.10;99.90
20973;DHT22;10645;52.370;13.314;2023-02-28T05:13:46;-4.10;99.90
20973;DHT22;10645;52.370;13.314;2023-02-28T05:16:13;-4.20;99.90
20973;DHT22;10645;52.370;13.314;2023-02-28T05:18:39;-4.30;99.90
20973;DHT22;10645;52.370;13.314;2023-02-28T05:21:05;-4.30;99.90
20973;DHT22;10645;52.370;13.314;2023-02-28T05:23:32;-4.30;99.90
20973;DHT22;10645;52.370;13.314;2023-02-28T05:25:59;-4.40;99.90
20973;DHT22;10645;52.370;13.314;2023-02-28T05:28:25;-4.40;99.90
20973;DHT22;10645;52.370;13.314;2023-02-28T05:30:51;-4.50;99.90
20973;DHT22;10645;52.370;13.314;2023-02-28T05:33:17;-4.50;99.90
20973;DHT22;10645;52.370;13.314;2023-02-28T05:35:44;-4.60;99.90
20973;DHT22;10645;52.370;13.314;2023-02-28T05:38:10;-4.60;99.90
20973;DHT22;10645;52.370;13.314;2023-02-28T05:40:38;-4.60;99.90
20973;DHT22;10645;52.370;13.314;2023-02-28T05:43:04;-4.60;99.90
20973;DHT22;10645;52.370;13.314;2023-02-28T05:45:30;-4.60;99.90
20973;DHT22;10645;52.370;13.314;2023-02-28T05:47:58;-4.70;99.90
20973;DHT22;10645;52.370;13.314;2023-02-28T05:50:24;-4.70;99.90
20973;DHT22;10645;52.370;13.314;2023-02-28T05:52:52;-4.70;99.90
20973;DHT22;10645;52.370;13.314;2023-02-28T05:55:18;-4.70;99.90
20973;DHT22;10645;52.370;13.314;2023-02-28T05:57:44;-4.70;99.90
20973;DHT22;10645;52.370;13.314;2023-02-28T06:00:11;-4.70;99.90
20973;DHT22;10645;52.370;13.314;2023-02-28T06:02:40;-4.70;99.90
20973;DHT22;10645;52.370;13.314;2023-02-28T06:05:14;-4.70;99.90
20973;DHT22;10645;52.370;13.314;2023-02-28T06:07:40;-4.70;99.90
20973;DHT22;10645;52.370;13.314;2023-02-28T06:10:07;-4.70;99.90
20973;DHT22;10645;52.370;13.314;2023-02-28T06:12:33;-4.70;99.90
20973;DHT22;10645;52.370;13.314;2023-02-28T06:14:59;-4.70;99.90
20973;DHT22;10645;52.370;13.314;2023-02-28T06:17:25;-4.70;99.90
20973;DHT22;10645;52.370;13.314;2023-02-28T06:19:51;-4.70;99.90
20973;DHT22;10645;52.370;13.314;2023-02-28T06:22:19;-4.70;99.90
20973;DHT22;10645;52.370;13.314;2023-02-28T06:24:45;-4.70;99.90
20973;DHT22;10645;52.370;13.314;2023-02-28T06:27:11;-4.60;99.90
20973;DHT22;10645;52.370;13.314;2023-02-28T06:29:37;-4.60;99.90
20973;DHT22;10645;52.370;13.314;2023-02-28T06:32:07;-4.60;99.90
20973;DHT22;10645;52.370;13.314;2023-02-28T06:34:33;-4.50;99.90
20973;DHT22;10645;52.370;13.314;2023-02-28T06:37:00;-4.50;99.90
20973;DHT22;10645;52.370;13.314;2023-02-28T06:39:29;-4.40;99.90
20973;DHT22;10645;52.370;13.314;2023-02-28T06:41:56;-4.30;99.90
20973;DHT22;10645;52.370;13.314;2023-02-28T06:44:22;-4.30;99.90
20973;DHT22;10645;52.370;13.314;2023-02-28T06:46:49;-4.10;99.90
20973;DHT22;10645;52.370;13.314;2023-02-28T06:49:15;-4.00;99.90
20973;DHT22;10645;52.370;13.314;2023-02-28T06:51:43;-3.90;99.90
20973;DHT22;10645;52.370;13.314;2023-02-28T06:54:11;-3.80;99.90
20973;DHT22;10645;52.370;13.314;2023-02-28T06:56:37;-3.60;99.90
20973;DHT22;10645;52.370;13.314;2023-02-28T06:59:04;-3.50;99.90
20973;DHT22;10645;52.370;13.314;2023-02-28T07:01:30;-3.40;99.90
20973;DHT22;10645;52.370;13.314;2023-02-28T07:03:59;-3.10;99.90
20973;DHT22;10645;52.370;13.314;2023-02-28T07:06:25;-2.80;99.90
20973;DHT22;10645;52.370;13.314;2023-02-28T07:08:52;-2.60;99.90
20973;DHT22;10645;52.370;13.314;2023-02-28T07:11:20;-2.30;99.90
20973;DHT22;10645;52.370;13.314;2023-02-28T07:13:49;-2.20;99.90
20973;DHT22;10645;52.370;13.314;2023-02-28T07:16:16;-2.00;99.90
20973;DHT22;10645;52.370;13.314;2023-02-28T07:18:42;-1.70;99.90
20973;DHT22;10645;52.370;13.314;2023-02-28T07:21:10;-1.60;99.90
20973;DHT22;10645;52.370;13.314;2023-02-28T07:23:37;-1.40;99.90
20973;DHT22;10645;52.370;13.314;2023-02-28T07:26:06;-1.30;99.90
20973;DHT22;10645;52.370;13.314;2023-02-28T07:28:32;-1.20;99.90
20973;DHT22;10645;52.370;13.314;2023-02-28T07:31:04;-1.00;99.90
20973;DHT22;10645;52.370;13.314;2023-02-28T07:33:30;-0.90;99.90
20973;DHT22;10645;52.370;13.314;2023-02-28T07:36:04;-0.80;99.90
20973;DHT22;10645;52.370;13.314;2023-02-28T07:38:30;-0.60;99.90
20973;DHT22;10645;52.370;13.314;2023-02-28T07:40:56;-0.50;99.90
20973;DHT22;10645;52.370;13.314;2023-02-28T07:43:23;-0.30;99.90
20973;DHT22;10645;52.370;13.314;2023-02-28T07:45:49;-0.20;99.90
20973;DHT22;10645;52.370;13.314;2023-02-28T07:48:15;-0.10;99.90
20973;DHT22;10645;52.370;13.314;2023-02-28T07:50:41;0.00;99.90
20973;DHT22;10645;52.370;13.314;2023-02-28T07:53:07;0.10;99.90
20973;DHT22;10645;52.370;13.314;2023-02-28T07:55:33;0.30;99.90
20973;DHT22;10645;52.370;13.314;2023-02-28T07:57:59;0.50;99.90
20973;DHT22;10645;52.370;13.314;2023-02-28T08:00:25;0.60;99.90
20973;DHT22;10645;52.370;13.314;2023-02-28T08:02:51;0.80;99.90
20973;DHT22;10645;52.370;13.314;2023-02-28T08:05:18;0.90;99.90
20973;DHT22;10645;52.370;13.314;2023-02-28T08:07:44;1.10;99.90
20973;DHT22;10645;52.370;13.314;2023-02-28T08:10:10;1.20;99.90
20973;DHT22;10645;52.370;13.314;2023-02-28T08:12:36;1.40;99.90
20973;DHT22;10645;52.370;13.314;2023-02-28T08:15:02;1.50;99.90
20973;DHT22;10645;52.370;13.314;2023-02-28T08:17:28;1.60;99.90
20973;DHT22;10645;52.370;13.314;2023-02-28T08:19:54;1.70;99.90
20973;DHT22;10645;52.370;13.314;2023-02-28T08:22:21;1.90;99.90
20973;DHT22;10645;52.370;13.314;2023-02-28T08:24:47;2.00;99.90
20973;DHT22;10645;52.370;13.314;2023-02-28T08:27:13;2.10;99.90
20973;DHT22;10645;52.370;13.314;2023-02-28T08:29:39;2.30;99.90
20973;DHT22;10645;52.370;13.314;2023-02-28T08:32:06;2.40;99.90
20973;DHT22;10645;52.370;13.314;2023-02-28T08:34:32;2.40;99.90
20973;DHT22;10645;52.370;13.314;2023-02-28T08:36:58;2.60;99.90
20973;DHT22;10645;52.370;13.314;2023-02-28T08:39:25;2.70;99.90
20973;DHT22;10645;52.370;13.314;2023-02-28T08:41:51;2.70;99.90
20973;DHT22;10645;52.370;13.314;2023-02-28T08:44:17;2.80;99.90
20973;DHT22;10645;52.370;13.314;2023-02-28T08:46:43;2.80;99.90
20973;DHT22;10645;52.370;13.314;2023-02-28T08:49:09;2.90;99.90
20973;DHT22;10645;52.370;13.314;2023-02-28T08:51:36;3.00;99.90
20973;DHT22;10645;52.370;13.314;2023-02-28T08:54:02;3.00;99.90
20973;DHT22;10645;52.370;13.314;2023-02-28T08:56:28;3.10;99.90
20973;DHT22;10645;52.370;13.314;2023-02-28T08:58:56;3.30;99.90
20973;DHT22;10645;52.370;13.314;2023-02-28T09:01:24;3.50;99.90
20973;DHT22;10645;52.370;13.314;2023-02-28T09:03:51;3.60;99.90
20973;DHT22;10645;52.370;13.314;2023-02-28T09:06:18;3.60;99.90
20973;DHT22;10645;52.370;13.314;2023-02-28T09:08:45;3.80;99.90
20973;DHT22;10645;52.370;13.314;2023-02-28T09:11:11;3.90;99.90
20973;DHT22;10645;52.370;13.314;2023-02-28T09:13:38;3.90;99.90
20973;DHT22;10645;52.370;13.314;2023-02-28T09:16:06;4.00;99.90
20973;DHT22;10645;52.370;13.314;2023-02-28T09:18:36;4.10;99.90
20973;DHT22;10645;52.370;13.314;2023-02-28T09:21:07;4.10;99.90
20973;DHT22;10645;52.370;13.314;2023-02-28T09:23:34;4.10;99.90
20973;DHT22;10645;52.370;13.314;2023-02-28T09:26:01;4.30;99.90
20973;DHT22;10645;52.370;13.314;2023-02-28T09:28:27;4.40;99.90
20973;DHT22;10645;52.370;13.314;2023-02-28T09:30:54;4.40;99.90
20973;DHT22;10645;52.370;13.314;2023-02-28T09:33:21;4.60;99.90
20973;DHT22;10645;52.370;13.314;2023-02-28T09:35:48;4.80;99.90
20973;DHT22;10645;52.370;13.314;2023-02-28T09:38:15;4.80;99.90
20973;DHT22;10645;52.370;13.314;2023-02-28T09:40:55;4.80;99.90
20973;DHT22;10645;52.370;13.314;2023-02-28T09:43:23;4.90;99.90
20973;DHT22;10645;52.370;13.314;2023-02-28T09:46:20;4.90;99.90
20973;DHT22;10645;52.370;13.314;2023-02-28T09:48:48;5.10;99.90
20973;DHT22;10645;52.370;13.314;2023-02-28T09:51:26;5.20;99.90
20973;DHT22;10645;52.370;13.314;2023-02-28T09:53:53;5.20;99.90
20973;DHT22;10645;52.370;13.314;2023-02-28T09:56:39;5.20;99.90
20973;DHT22;10645;52.370;13.314;2023-02-28T09:59:23;5.30;99.90
20973;DHT22;10645;52.370;13.314;2023-02-28T10:02:00;5.30;99.90
20973;DHT22;10645;52.370;13.314;2023-02-28T10:04:46;5.50;99.90
20973;DHT22;10645;52.370;13.314;2023-02-28T10:09:57;5.50;99.90
20973;DHT22;10645;52.370;13.314;2023-02-28T10:12:26;5.50;99.90
20973;DHT22;10645;52.370;13.314;2023-02-28T10:14:54;5.40;99.90
20973;DHT22;10645;52.370;13.314;2023-02-28T10:17:38;5.50;99.90
20973;DHT22;10645;52.370;13.314;2023-02-28T10:25:20;5.60;99.90
20973;DHT22;10645;52.370;13.314;2023-02-28T10:27:47;5.60;99.90
20973;DHT22;10645;52.370;13.314;2023-02-28T10:30:13;5.60;99.90
20973;DHT22;10645;52.370;13.314;2023-02-28T10:32:49;5.60;99.90
20973;DHT22;10645;52.370;13.314;2023-02-28T10:35:22;5.60;99.90
20973;DHT22;10645;52.370;13.314;2023-02-28T10:37:54;5.80;99.90
20973;DHT22;10645;52.370;13.314;2023-02-28T10:45:26;6.00;99.90
20973;DHT22;10645;52.370;13.314;2023-02-28T10:47:59;5.90;99.90
20973;DHT22;10645;52.370;13.314;2023-02-28T10:50:44;5.90;99.90
20973;DHT22;10645;52.370;13.314;2023-02-28T10:56:03;5.70;99.90
20973;DHT22;10645;52.370;13.314;2023-02-28T10:58:44;5.90;99.90
20973;DHT22;10645;52.370;13.314;2023-02-28T11:01:38;5.70;99.90
20973;DHT22;10645;52.370;13.314;2023-02-28T11:07:17;5.90;99.90
20973;DHT22;10645;52.370;13.314;2023-02-28T11:09:50;5.90;99.70
20973;DHT22;10645;52.370;13.314;2023-02-28T11:12:26;5.80;99.10
20973;DHT22;10645;52.370;13.314;2023-02-28T11:14:58;5.80;99.70
20973;DHT22;10645;52.370;13.314;2023-02-28T11:17:30;5.90;99.90
20973;DHT22;10645;52.370;13.314;2023-02-28T11:20:04;6.20;99.90
20973;DHT22;10645;52.370;13.314;2023-02-28T11:22:38;6.30;99.90
20973;DHT22;10645;52.370;13.314;2023-02-28T11:25:13;6.30;99.90
20973;DHT22;10645;52.370;13.314;2023-02-28T11:27:50;6.50;99.90
20973;DHT22;10645;52.370;13.314;2023-02-28T11:30:24;6.60;99.90
20973;DHT22;10645;52.370;13.314;2023-02-28T11:32:50;6.70;99.90
20973;DHT22;10645;52.370;13.314;2023-02-28T11:35:43;6.80;99.90
20973;DHT22;10645;52.370;13.314;2023-02-28T11:38:12;6.90;99.90
20973;DHT22;10645;52.370;13.314;2023-02-28T11:43:46;6.80;96.60
20973;DHT22;10645;52.370;13.314;2023-02-28T11:52:00;6.80;97.80
20973;DHT22;10645;52.370;13.314;2023-02-28T11:54:40;6.30;97.20
20973;DHT22;10645;52.370;13.314;2023-02-28T12:02:48;6.50;99.90
20973;DHT22;10645;52.370;13.314;2023-02-28T12:11:11;6.20;98.20
20973;DHT22;10645;52.370;13.314;2023-02-28T12:13:52;6.40;99.90
20973;DHT22;10645;52.370;13.314;2023-02-28T12:16:27;6.60;99.90
20973;DHT22;10645;52.370;13.314;2023-02-28T12:19:06;6.70;98.20
20973;DHT22;10645;52.370;13.314;2023-02-28T12:27:19;6.90;99.90
20973;DHT22;10645;52.370;13.314;2023-02-28T12:29:50;6.90;99.90
20973;DHT22;10645;52.370;13.314;2023-02-28T12:32:30;6.90;98.90
20973;DHT22;10645;52.370;13.314;2023-02-28T12:35:02;7.00;99.90
20973;DHT22;10645;52.370;13.314;2023-02-28T12:37:37;6.90;99.30
20973;DHT22;10645;52.370;13.314;2023-02-28T12:40:14;6.70;98.70
20973;DHT22;10645;52.370;13.314;2023-02-28T12:42:56;6.70;99.90
20973;DHT22;10645;52.370;13.314;2023-02-28T12:45:26;6.30;98.20
20973;DHT22;10645;52.370;13.314;2023-02-28T12:47:59;6.20;99.40
20973;DHT22;10645;52.370;13.314;2023-02-28T12:50:27;6.10;98.80
20973;DHT22;10645;52.370;13.314;2023-02-28T12:53:18;5.90;97.40
20973;DHT22;10645;52.370;13.314;2023-02-28T12:58:33;5.90;99.90
20973;DHT22;10645;52.370;13.314;2023-02-28T13:04:08;6.00;99.60
20973;DHT22;10645;52.370;13.314;2023-02-28T13:07:16;6.10;99.60
20973;DHT22;10645;52.370;13.314;2023-02-28T13:09:59;5.90;98.50
20973;DHT22;10645;52.370;13.314;2023-02-28T13:12:25;5.90;98.60
20973;DHT22;10645;52.370;13.314;2023-02-28T13:15:07;5.90;99.90
20973;DHT22;10645;52.370;13.314;2023-02-28T13:17:39;5.90;99.90
20973;DHT22;10645;52.370;13.314;2023-02-28T13:20:18;5.90;99.90
20973;DHT22;10645;52.370;13.314;2023-02-28T13:22:46;5.90;99.90
20973;DHT22;10645;52.370;13.314;2023-02-28T13:27:50;5.90;99.30
20973;DHT22;10645;52.370;13.314;2023-02-28T13:33:34;5.60;99.20
20973;DHT22;10645;52.370;13.314;2023-02-28T13:39:00;5.30;98.10
20973;DHT22;10645;52.370;13.314;2023-02-28T13:44:03;5.20;99.30
20973;DHT22;10645;52.370;13.314;2023-02-28T13:46:31;5.20;99.00
20973;DHT22;10645;52.370;13.314;2023-02-28T13:49:18;5.10;98.90
20973;DHT22;10645;52.370;13.314;2023-02-28T13:51:47;5.10;99.40
20973;DHT22;10645;52.370;13.314;2023-02-28T13:57:44;5.00;99.70
20973;DHT22;10645;52.370;13.314;2023-02-28T14:03:19;5.00;99.60
20973;DHT22;10645;52.370;13.314;2023-02-28T14:06:18;5.00;99.90
20973;DHT22;10645;52.370;13.314;2023-02-28T14:11:40;4.90;99.00
20973;DHT22;10645;52.370;13.314;2023-02-28T14:14:09;4.90;99.10
20973;DHT22;10645;52.370;13.314;2023-02-28T14:16:46;4.90;99.90
20973;DHT22;10645;52.370;13.314;2023-02-28T14:19:25;4.90;99.90
20973;DHT22;10645;52.370;13.314;2023-02-28T14:22:16;5.00;99.90
20973;DHT22;10645;52.370;13.314;2023-02-28T14:31:09;4.90;99.90
20973;DHT22;10645;52.370;13.314;2023-02-28T14:33:53;4.80;99.90
20973;DHT22;10645;52.370;13.314;2023-02-28T14:36:36;4.80;99.90
20973;DHT22;10645;52.370;13.314;2023-02-28T14:41:41;4.80;99.30
20973;DHT22;10645;52.370;13.314;2023-02-28T14:44:22;4.80;99.90
20973;DHT22;10645;52.370;13.314;2023-02-28T14:46:52;4.70;99.90
20973;DHT22;10645;52.370;13.314;2023-02-28T14:49:23;4.60;99.90
20973;DHT22;10645;52.370;13.314;2023-02-28T14:52:20;4.60;99.90
20973;DHT22;10645;52.370;13.314;2023-02-28T14:54:53;4.60;99.90
20973;DHT22;10645;52.370;13.314;2023-02-28T14:57:23;4.60;99.90
20973;DHT22;10645;52.370;13.314;2023-02-28T15:02:42;4.60;99.90
20973;DHT22;10645;52.370;13.314;2023-02-28T15:07:44;4.60;99.60
20973;DHT22;10645;52.370;13.314;2023-02-28T15:10:20;4.50;99.60
20973;DHT22;10645;52.370;13.314;2023-02-28T15:12:58;4.40;99.90
20973;DHT22;10645;52.370;13.314;2023-02-28T15:15:32;4.30;99.90
20973;DHT22;10645;52.370;13.314;2023-02-28T15:18:03;4.20;99.90
20973;DHT22;10645;52.370;13.314;2023-02-28T15:20:31;4.20;99.90
20973;DHT22;10645;52.370;13.314;2023-02-28T15:22:58;4.20;99.90
20973;DHT22;10645;52.370;13.314;2023-02-28T15:25:25;4.10;99.90
20973;DHT22;10645;52.370;13.314;2023-02-28T15:27:54;4.00;99.90
20973;DHT22;10645;52.370;13.314;2023-02-28T15:30:27;4.00;99.90
20973;DHT22;10645;52.370;13.314;2023-02-28T15:35:39;3.80;99.90
20973;DHT22;10645;52.370;13.314;2023-02-28T15:38:25;3.80;99.90
20973;DHT22;10645;52.370;13.314;2023-02-28T15:40:54;3.80;99.90
20973;DHT22;10645;52.370;13.314;2023-02-28T15:43:29;3.70;99.90
20973;DHT22;10645;52.370;13.314;2023-02-28T15:46:01;3.70;99.90
20973;DHT22;10645;52.370;13.314;2023-02-28T15:48:51;3.60;99.90
20973;DHT22;10645;52.370;13.314;2023-02-28T15:51:23;3.60;99.90
20973;DHT22;10645;52.370;13.314;2023-02-28T15:56:39;3.40;99.90
20973;DHT22;10645;52.370;13.314;2023-02-28T15:59:16;3.30;99.90
20973;DHT22;10645;52.370;13.314;2023-02-28T16:01:43;3.20;99.90
20973;DHT22;10645;52.370;13.314;2023-02-28T16:04:16;3.20;99.90
20973;DHT22;10645;52.370;13.314;2023-02-28T16:09:26;3.00;99.90
20973;DHT22;10645;52.370;13.314;2023-02-28T16:11:55;2.90;99.90
20973;DHT22;10645;52.370;13.314;2023-02-28T16:14:24;2.90;99.90
20973;DHT22;10645;52.370;13.314;2023-02-28T16:16:55;2.80;99.90
20973;DHT22;10645;52.370;13.314;2023-02-28T16:19:22;2.70;99.90
20973;DHT22;10645;52.370;13.314;2023-02-28T16:21:49;2.60;99.90
20973;DHT22;10645;52.370;13.314;2023-02-28T16:24:15;2.50;99.90
20973;DHT22;10645;52.370;13.314;2023-02-28T16:26:45;2.40;99.90
20973;DHT22;10645;52.370;13.314;2023-02-28T16:29:16;2.30;99.90
20973;DHT22;10645;52.370;13.314;2023-02-28T16:31:44;2.20;99.90
20973;DHT22;10645;52.370;13.314;2023-02-28T16:34:10;2.10;99.90
20973;DHT22;10645;52.370;13.314;2023-02-28T16:36:36;2.00;99.90
20973;DHT22;10645;52.370;13.314;2023-02-28T16:39:02;2.00;99.90
20973;DHT22;10645;52.370;13.314;2023-02-28T16:41:29;1.90;99.90
20973;DHT22;10645;52.370;13.314;2023-02-28T16:43:57;1.80;99.90
20973;DHT22;10645;52.370;13.314;2023-02-28T16:46:34;1.70;99.90
20973;DHT22;10645;52.370;13.314;2023-02-28T16:49:00;1.60;99.90
20973;DHT22;10645;52.370;13.314;2023-02-28T16:51:26;1.40;99.90
20973;DHT22;10645;52.370;13.314;2023-02-28T16:53:52;1.40;99.90
20973;DHT22;10645;52.370;13.314;2023-02-28T16:56:21;1.30;99.90
20973;DHT22;10645;52.370;13.314;2023-02-28T16:58:48;1.20;99.90
20973;DHT22;10645;52.370;13.314;2023-02-28T17:01:16;1.10;99.90
20973;DHT22;10645;52.370;13.314;2023-02-28T17:03:42;1.00;99.90
20973;DHT22;10645;52.370;13.314;2023-02-28T17:06:18;0.80;99.90
20973;DHT22;10645;52.370;13.314;2023-02-28T17:08:45;0.70;99.90
20973;DHT22;10645;52.370;13.314;2023-02-28T17:11:11;0.50;99.90
20973;DHT22;10645;52.370;13.314;2023-02-28T17:13:37;0.40;99.90
20973;DHT22;10645;52.370;13.314;2023-02-28T17:16:04;0.30;99.90
20973;DHT22;10645;52.370;13.314;2023-02-28T17:18:30;0.10;99.90
20973;DHT22;10645;52.370;13.314;2023-02-28T17:21:00;0.00;99.90
20973;DHT22;10645;52.370;13.314;2023-02-28T17:23:26;-0.10;99.90
20973;DHT22;10645;52.370;13.314;2023-02-28T17:25:52;-0.20;99.90
20973;DHT22;10645;52.370;13.314;2023-02-28T17:28:21;-0.30;99.90
20973;DHT22;10645;52.370;13.314;2023-02-28T17:30:48;-0.50;99.90
20973;DHT22;10645;52.370;13.314;2023-02-28T17:33:15;-0.60;99.90
20973;DHT22;10645;52.370;13.314;2023-02-28T17:35:41;-0.70;99.90
20973;DHT22;10645;52.370;13.314;2023-02-28T17:38:18;-0.80;99.90
20973;DHT22;10645;52.370;13.314;2023-02-28T17:40:45;-0.90;99.90
20973;DHT22;10645;52.370;13.314;2023-02-28T17:43:11;-1.00;99.90
20973;DHT22;10645;52.370;13.314;2023-02-28T17:45:37;-1.00;99.90
20973;DHT22;10645;52.370;13.314;2023-02-28T17:48:03;-1.10;99.90
20973;DHT22;10645;52.370;13.314;2023-02-28T17:50:29;-1.10;99.90
20973;DHT22;10645;52.370;13.314;2023-02-28T17:52:57;-1.20;99.90
20973;DHT22;10645;52.370;13.314;2023-02-28T17:55:24;-1.20;99.90